Terminal Aerodrome Forecast
Issued by NWS Sioux Falls, SD

Home | Current Version | Previous Version | Graphics & Text | Print | Product List | Glossary Off
Versions: 1 2 3 4 5 6 7 8 9 10 11 12 13

000
FTUS43 KFSD 211700
TAFFSD
TAF
KFSD 211724Z 2118/2218 34019G27KT P6SM SKC
     FM212200 34014G24KT P6SM SKC
     FM220000 35014KT P6SM SKC
     FM220200 35008KT P6SM SKC
     FM220500 02004KT P6SM SKC
     FM221600 15009KT P6SM SCT100=

USA.gov is the U.S. government's official web portal to all federal, state and local government web resources and services.